createdAt,value
2018-09-09T00:00:05.537Z,7.80
2018-09-09T00:02:32.928Z,7.80
2018-09-09T00:05:00.353Z,7.80
2018-09-09T00:07:27.792Z,7.70
2018-09-09T00:09:55.200Z,7.70
2018-09-09T00:12:22.584Z,7.70
2018-09-09T00:14:50.043Z,7.60
2018-09-09T00:17:17.429Z,7.50
2018-09-09T00:19:44.870Z,7.60
2018-09-09T00:22:12.290Z,7.60
2018-09-09T00:24:39.682Z,7.60
2018-09-09T00:27:07.172Z,7.40
2018-09-09T00:29:34.869Z,7.40
2018-09-09T00:32:02.499Z,7.30
2018-09-09T00:34:29.891Z,7.20
2018-09-09T00:36:57.276Z,7.20
2018-09-09T00:39:24.777Z,7.10
2018-09-09T00:41:52.173Z,7.10
2018-09-09T00:44:19.585Z,7.10
2018-09-09T00:46:47.009Z,7.10
2018-09-09T00:49:20.101Z,7.00
2018-09-09T00:51:53.272Z,7.00
2018-09-09T00:54:20.685Z,7.00
2018-09-09T00:56:48.063Z,7.10
2018-09-09T00:59:15.513Z,7.10
2018-09-09T01:01:42.946Z,7.10
2018-09-09T01:04:10.357Z,7.10
2018-09-09T01:06:37.805Z,7.10
2018-09-09T01:09:07.149Z,6.90
2018-09-09T01:11:34.561Z,6.80
2018-09-09T01:14:02.356Z,6.70
2018-09-09T01:16:29.759Z,6.70
2018-09-09T01:18:57.143Z,6.60
2018-09-09T01:21:24.614Z,6.70
2018-09-09T01:23:52.045Z,6.70
2018-09-09T01:26:19.482Z,6.70
2018-09-09T01:28:46.887Z,6.70
2018-09-09T01:31:14.266Z,6.70
2018-09-09T01:33:41.652Z,6.60
2018-09-09T01:36:09.121Z,6.60
2018-09-09T01:38:36.517Z,6.60
2018-09-09T01:41:03.910Z,6.50
2018-09-09T01:43:31.375Z,6.40
2018-09-09T01:45:58.781Z,6.40
2018-09-09T01:48:26.154Z,6.40
2018-09-09T01:50:53.584Z,6.40
2018-09-09T01:53:20.959Z,6.40
2018-09-09T01:55:48.413Z,6.40
2018-09-09T01:58:15.853Z,6.40
2018-09-09T02:00:43.305Z,6.40
2018-09-09T02:03:10.740Z,6.40
2018-09-09T02:05:38.200Z,6.30
2018-09-09T02:08:05.629Z,6.30
2018-09-09T02:10:33.065Z,6.40
2018-09-09T02:13:00.456Z,6.30
2018-09-09T02:15:27.929Z,6.40
2018-09-09T02:17:55.327Z,6.40
2018-09-09T02:20:22.712Z,6.40
2018-09-09T02:22:50.162Z,6.60
2018-09-09T02:25:17.584Z,6.60
2018-09-09T02:27:44.997Z,6.70
2018-09-09T02:30:12.430Z,6.70
2018-09-09T02:32:39.842Z,6.70
2018-09-09T02:35:07.277Z,6.70
2018-09-09T02:37:34.718Z,6.80
2018-09-09T02:40:02.219Z,6.80
2018-09-09T02:42:29.684Z,6.80
2018-09-09T02:44:57.089Z,6.90
2018-09-09T02:47:24.463Z,6.80
2018-09-09T02:49:51.971Z,6.80
2018-09-09T02:52:19.361Z,6.70
2018-09-09T02:54:47.540Z,6.60
2018-09-09T02:57:15.013Z,6.60
2018-09-09T02:59:42.418Z,6.60
2018-09-09T03:02:09.811Z,6.60
2018-09-09T03:04:37.233Z,6.40
2018-09-09T03:07:04.641Z,6.40
2018-09-09T03:09:32.064Z,6.30
2018-09-09T03:11:59.485Z,6.30
2018-09-09T03:14:26.920Z,6.40
2018-09-09T03:16:54.354Z,6.30
2018-09-09T03:19:21.740Z,6.20
2018-09-09T03:21:49.193Z,6.20
2018-09-09T03:24:16.589Z,6.10
2018-09-09T03:26:44.024Z,6.10
2018-09-09T03:29:11.396Z,6.00
2018-09-09T03:31:38.790Z,6.00
2018-09-09T03:34:06.307Z,6.00
2018-09-09T03:36:33.673Z,6.00
2018-09-09T03:39:01.050Z,5.90
2018-09-09T03:41:28.502Z,6.00
2018-09-09T03:43:55.897Z,5.90
2018-09-09T03:46:23.299Z,5.90
2018-09-09T03:48:50.710Z,5.90
2018-09-09T03:51:18.117Z,5.90
2018-09-09T03:53:45.543Z,5.90
2018-09-09T03:56:12.956Z,5.90
2018-09-09T03:58:40.444Z,6.00
2018-09-09T04:01:07.857Z,6.10
2018-09-09T04:03:35.294Z,6.00
2018-09-09T04:06:02.742Z,5.90
2018-09-09T04:08:30.145Z,5.80
2018-09-09T04:10:57.566Z,5.80
2018-09-09T04:13:24.957Z,5.70
2018-09-09T04:15:52.573Z,5.70
2018-09-09T04:18:19.947Z,5.80
2018-09-09T04:20:47.349Z,5.90
2018-09-09T04:23:14.801Z,5.90
2018-09-09T04:25:42.224Z,5.80
2018-09-09T04:28:09.617Z,5.70
2018-09-09T04:30:37.033Z,5.70
2018-09-09T04:33:04.488Z,5.80
2018-09-09T04:35:31.909Z,5.90
2018-09-09T04:37:59.352Z,6.00
2018-09-09T04:40:26.761Z,6.10
2018-09-09T04:42:54.211Z,6.20
2018-09-09T04:45:21.612Z,6.30
2018-09-09T04:47:49.014Z,6.30
2018-09-09T04:50:16.495Z,6.40
2018-09-09T04:52:43.905Z,6.40
2018-09-09T04:55:11.297Z,6.50
2018-09-09T04:57:38.732Z,6.50
2018-09-09T05:00:06.520Z,6.60
2018-09-09T05:02:34.550Z,6.60
2018-09-09T05:05:01.929Z,6.70
2018-09-09T05:07:29.354Z,6.80
2018-09-09T05:09:56.840Z,6.90
2018-09-09T05:12:24.238Z,7.00
2018-09-09T05:14:51.653Z,7.10
2018-09-09T05:17:19.088Z,7.20
2018-09-09T05:19:46.538Z,7.40
2018-09-09T05:22:13.929Z,7.50
2018-09-09T05:24:41.341Z,7.60
2018-09-09T05:27:08.763Z,7.80
2018-09-09T05:29:36.225Z,7.90
2018-09-09T05:32:03.601Z,8.00
2018-09-09T05:34:31.015Z,8.20
2018-09-09T05:36:58.496Z,8.40
2018-09-09T05:39:25.944Z,8.70
2018-09-09T05:41:53.325Z,9.00
2018-09-09T05:44:20.728Z,9.20
2018-09-09T05:46:48.169Z,9.40
2018-09-09T05:49:15.649Z,9.60
2018-09-09T05:51:43.047Z,9.80
2018-09-09T05:54:10.420Z,9.90
2018-09-09T05:56:37.866Z,10.20
2018-09-09T05:59:05.333Z,10.40
2018-09-09T06:01:32.753Z,10.40
2018-09-09T06:04:00.177Z,10.50
2018-09-09T06:06:27.654Z,10.50
2018-09-09T06:08:55.146Z,10.50
2018-09-09T06:11:22.566Z,10.60
2018-09-09T06:13:50.046Z,10.80
2018-09-09T06:16:17.479Z,11.00
2018-09-09T06:18:44.905Z,11.10
2018-09-09T06:21:12.321Z,11.10
2018-09-09T06:23:39.716Z,11.30
2018-09-09T06:26:07.144Z,11.40
2018-09-09T06:28:34.606Z,11.70
2018-09-09T06:31:02.026Z,11.90
2018-09-09T06:33:29.475Z,12.00
2018-09-09T06:35:57.005Z,12.00
2018-09-09T06:38:24.466Z,12.00
2018-09-09T06:40:51.868Z,12.00
2018-09-09T06:43:19.377Z,12.10
2018-09-09T06:45:46.885Z,12.10
2018-09-09T06:48:14.361Z,12.10
2018-09-09T06:50:42.326Z,12.20
2018-09-09T06:53:09.817Z,12.20
2018-09-09T06:55:37.193Z,12.30
2018-09-09T06:58:05.065Z,12.40
2018-09-09T07:00:32.472Z,12.50
2018-09-09T07:02:59.852Z,12.70
2018-09-09T07:05:27.346Z,12.90
2018-09-09T07:07:55.094Z,13.10
2018-09-09T07:10:22.553Z,13.20
2018-09-09T07:12:49.940Z,13.40
2018-09-09T07:15:17.405Z,13.50
2018-09-09T07:17:44.809Z,13.70
2018-09-09T07:20:12.200Z,13.90
2018-09-09T07:22:39.669Z,14.00
2018-09-09T07:25:07.168Z,14.20
2018-09-09T07:27:34.536Z,14.30
2018-09-09T07:30:01.998Z,14.40
2018-09-09T07:32:29.488Z,14.60
2018-09-09T07:34:56.919Z,14.70
2018-09-09T07:37:24.431Z,14.80
2018-09-09T07:39:51.842Z,15.00
2018-09-09T07:42:19.262Z,15.10
2018-09-09T07:44:46.690Z,15.30
2018-09-09T07:47:14.133Z,15.40
2018-09-09T07:49:41.479Z,15.40
2018-09-09T07:52:08.917Z,15.60
2018-09-09T07:54:36.303Z,15.60
2018-09-09T07:57:03.878Z,15.70
2018-09-09T07:59:31.308Z,15.70
2018-09-09T08:01:58.685Z,15.70
2018-09-09T08:04:26.077Z,15.90
2018-09-09T08:06:53.557Z,16.00
2018-09-09T08:09:20.947Z,16.00
2018-09-09T08:11:48.331Z,16.10
2018-09-09T08:14:15.849Z,16.20
2018-09-09T08:16:43.240Z,16.30
2018-09-09T08:19:10.640Z,16.40
2018-09-09T08:21:38.082Z,16.50
2018-09-09T08:24:05.565Z,16.60
2018-09-09T08:26:32.964Z,16.80
2018-09-09T08:29:00.436Z,16.70
2018-09-09T08:31:27.894Z,16.60
2018-09-09T08:33:55.308Z,16.70
2018-09-09T08:36:22.737Z,16.90
2018-09-09T08:38:50.184Z,17.10
2018-09-09T08:41:17.568Z,17.40
2018-09-09T08:43:44.985Z,17.60
2018-09-09T08:46:12.441Z,17.90
2018-09-09T08:48:39.855Z,18.10
2018-09-09T08:51:07.232Z,18.30
2018-09-09T08:53:34.658Z,18.50
2018-09-09T08:56:02.065Z,18.60
2018-09-09T08:58:29.466Z,18.60
2018-09-09T09:00:56.930Z,18.70
2018-09-09T09:03:24.346Z,18.60
2018-09-09T09:05:51.796Z,18.50
2018-09-09T09:08:19.178Z,18.60
2018-09-09T09:10:46.589Z,18.60
2018-09-09T09:13:14.030Z,18.80
2018-09-09T09:15:41.465Z,18.40
2018-09-09T09:18:08.973Z,18.50
2018-09-09T09:20:36.378Z,18.50
2018-09-09T09:23:03.847Z,18.30
2018-09-09T09:25:31.465Z,18.40
2018-09-09T09:27:59.025Z,18.60
2018-09-09T09:30:26.527Z,18.70
2018-09-09T09:32:53.905Z,18.60
2018-09-09T09:35:25.941Z,18.30
2018-09-09T09:37:53.354Z,18.40
2018-09-09T09:40:20.799Z,18.60
2018-09-09T09:42:48.164Z,18.60
2018-09-09T09:45:15.589Z,18.60
2018-09-09T09:47:43.018Z,18.60
2018-09-09T09:50:10.401Z,18.60
2018-09-09T09:52:37.784Z,18.70
2018-09-09T09:55:05.260Z,18.70
2018-09-09T09:57:32.684Z,18.90
2018-09-09T10:00:00.124Z,19.30
2018-09-09T10:02:27.556Z,19.10
2018-09-09T10:04:54.944Z,19.10
2018-09-09T10:07:22.438Z,19.10
2018-09-09T10:09:49.812Z,18.90
2018-09-09T10:12:17.318Z,18.80
2018-09-09T10:14:44.749Z,18.60
2018-09-09T10:17:12.116Z,18.60
2018-09-09T10:19:39.557Z,18.70
2018-09-09T10:22:07.013Z,19.00
2018-09-09T10:24:34.403Z,19.30
2018-09-09T10:27:01.858Z,19.30
2018-09-09T10:29:29.251Z,19.20
2018-09-09T10:31:56.725Z,19.30
2018-09-09T10:34:24.164Z,19.60
2018-09-09T10:36:51.558Z,19.60
2018-09-09T10:39:18.947Z,19.50
2018-09-09T10:41:46.381Z,19.40
2018-09-09T10:44:13.795Z,19.50
2018-09-09T10:46:41.324Z,19.40
2018-09-09T10:49:08.651Z,19.40
2018-09-09T10:51:36.084Z,19.30
2018-09-09T10:54:03.565Z,19.20
2018-09-09T10:56:30.973Z,19.40
2018-09-09T10:58:58.534Z,19.60
2018-09-09T11:01:26.022Z,19.60
2018-09-09T11:03:53.385Z,19.50
2018-09-09T11:06:20.794Z,19.60
2018-09-09T11:08:48.282Z,19.60
2018-09-09T11:11:15.689Z,19.50
2018-09-09T11:13:43.077Z,19.30
2018-09-09T11:16:10.501Z,19.10
2018-09-09T11:18:37.875Z,18.90
2018-09-09T11:21:05.305Z,18.70
2018-09-09T11:23:32.826Z,18.50
2018-09-09T11:26:00.212Z,18.40
2018-09-09T11:28:27.625Z,18.70
2018-09-09T11:30:55.086Z,19.00
2018-09-09T11:33:22.497Z,19.30
2018-09-09T11:35:49.901Z,19.80
2018-09-09T11:38:17.345Z,20.10
2018-09-09T11:40:44.751Z,20.40
2018-09-09T11:43:12.144Z,20.50
2018-09-09T11:45:39.611Z,20.20
2018-09-09T11:48:07.055Z,20.00
2018-09-09T11:50:34.450Z,20.10
2018-09-09T11:53:01.951Z,20.00
2018-09-09T11:55:29.570Z,20.00
2018-09-09T11:57:57.252Z,20.10
2018-09-09T12:00:24.703Z,20.10
2018-09-09T12:02:52.144Z,20.00
2018-09-09T12:05:19.543Z,20.00
2018-09-09T12:07:46.929Z,20.00
2018-09-09T12:10:14.383Z,20.00
2018-09-09T12:12:41.750Z,20.00
2018-09-09T12:15:09.180Z,19.90
2018-09-09T12:17:36.605Z,20.00
2018-09-09T12:20:04.160Z,20.10
2018-09-09T12:22:31.547Z,20.00
2018-09-09T12:24:58.937Z,20.00
2018-09-09T12:27:26.394Z,20.20
2018-09-09T12:29:53.771Z,20.00
2018-09-09T12:32:21.396Z,19.80
2018-09-09T12:34:48.691Z,19.70
2018-09-09T12:37:16.141Z,19.70
2018-09-09T12:39:43.519Z,19.70
2018-09-09T12:42:11.157Z,19.60
2018-09-09T12:44:44.189Z,19.60
2018-09-09T12:47:17.370Z,19.50
2018-09-09T12:49:44.748Z,19.30
2018-09-09T12:52:12.157Z,19.40
2018-09-09T12:54:39.557Z,19.70
2018-09-09T12:57:06.985Z,20.00
2018-09-09T12:59:34.410Z,20.00
2018-09-09T13:02:01.935Z,20.30
2018-09-09T13:04:29.340Z,20.20
2018-09-09T13:06:56.881Z,19.90
2018-09-09T13:09:24.572Z,19.90
2018-09-09T13:11:51.958Z,20.00
2018-09-09T13:14:19.380Z,19.70
2018-09-09T13:16:46.816Z,19.50
2018-09-09T13:19:14.232Z,19.60
2018-09-09T13:21:41.662Z,19.60
2018-09-09T13:24:09.109Z,19.70
2018-09-09T13:26:36.525Z,19.70
2018-09-09T13:29:04.079Z,19.70
2018-09-09T13:31:31.476Z,19.80
2018-09-09T13:33:58.908Z,20.00
2018-09-09T13:36:26.335Z,19.80
2018-09-09T13:38:53.818Z,19.80
2018-09-09T13:41:21.225Z,19.70
2018-09-09T13:43:48.651Z,19.90
2018-09-09T13:46:16.152Z,20.00
2018-09-09T13:48:43.628Z,20.10
2018-09-09T13:51:11.077Z,20.20
2018-09-09T13:53:38.482Z,20.00
2018-09-09T13:56:06.240Z,20.10
2018-09-09T13:58:33.678Z,20.20
2018-09-09T14:01:01.086Z,20.20
2018-09-09T14:03:28.556Z,20.30
2018-09-09T14:05:55.962Z,20.30
2018-09-09T14:08:23.476Z,20.30
2018-09-09T14:10:50.893Z,20.20
2018-09-09T14:13:18.294Z,20.10
2018-09-09T14:15:45.729Z,20.40
2018-09-09T14:18:13.827Z,20.30
2018-09-09T14:20:41.244Z,19.90
2018-09-09T14:23:08.656Z,19.70
2018-09-09T14:25:36.125Z,19.60
2018-09-09T14:28:03.534Z,19.60
2018-09-09T14:30:30.919Z,19.60
2018-09-09T14:32:58.425Z,19.60
2018-09-09T14:35:25.846Z,19.40
2018-09-09T14:37:53.285Z,19.30
2018-09-09T14:40:20.798Z,19.40
2018-09-09T14:42:48.217Z,19.60
2018-09-09T14:45:15.844Z,19.50
2018-09-09T14:47:43.264Z,19.60
2018-09-09T14:50:10.749Z,19.40
2018-09-09T14:52:38.138Z,19.60
2018-09-09T14:55:05.604Z,19.60
2018-09-09T14:57:33.288Z,19.40
2018-09-09T15:00:00.769Z,19.40
2018-09-09T16:01:18.540Z,18.30
2018-09-09T18:09:41.646Z,14.10
2018-09-09T18:30:25.092Z,13.70
2018-09-09T18:33:23.569Z,13.60
2018-09-09T18:42:20.458Z,13.30
2018-09-09T18:45:09.045Z,13.10
2018-09-09T18:51:04.717Z,13.00
2018-09-09T19:01:57.687Z,13.00
2018-09-09T19:04:47.509Z,12.90
2018-09-09T19:37:21.147Z,12.20
2018-09-09T19:53:46.937Z,11.40
2018-09-09T20:04:04.179Z,11.00
2018-09-09T20:06:33.083Z,10.90
2018-09-09T20:13:57.719Z,10.60
2018-09-09T20:16:33.935Z,10.40
2018-09-09T20:19:39.800Z,10.30
2018-09-09T20:22:16.356Z,10.30
2018-09-09T20:24:47.888Z,10.20
2018-09-09T20:27:25.640Z,10.20
2018-09-09T20:33:06.507Z,10.10
2018-09-09T20:35:36.119Z,10.20
2018-09-09T20:40:55.500Z,10.30
2018-09-09T20:43:30.842Z,10.40
2018-09-09T20:55:08.243Z,10.60
2018-09-09T20:59:14.660Z,10.70
2018-09-09T21:06:12.277Z,10.70
2018-09-09T21:11:41.791Z,10.50
2018-09-09T21:14:12.945Z,10.40
2018-09-09T21:16:51.038Z,10.50
2018-09-09T21:19:20.010Z,10.40
2018-09-09T21:21:51.216Z,10.50
2018-09-09T21:24:21.200Z,10.50
2018-09-09T21:28:59.350Z,10.60
2018-09-09T21:31:28.005Z,10.50
2018-09-09T21:34:00.711Z,10.30
2018-09-09T21:36:31.039Z,10.20
2018-09-09T21:42:12.318Z,10.10
2018-09-09T21:44:41.214Z,10.00
2018-09-09T21:50:06.738Z,9.90
2018-09-09T21:55:55.177Z,9.70
2018-09-09T21:58:26.098Z,9.60
2018-09-09T22:04:05.868Z,9.60
2018-09-09T22:06:38.033Z,9.50
2018-09-09T22:09:11.550Z,9.50
2018-09-09T22:11:41.757Z,9.50
2018-09-09T22:14:20.046Z,9.50
2018-09-09T22:17:04.995Z,9.60
2018-09-09T22:22:16.281Z,9.60
2018-09-09T22:24:51.561Z,9.60
2018-09-09T22:27:23.187Z,9.60
2018-09-09T22:29:53.648Z,9.70
2018-09-09T22:32:32.553Z,9.80
2018-09-09T22:41:13.893Z,10.00
2018-09-09T22:43:54.517Z,10.10
2018-09-09T22:46:24.115Z,10.20
2018-09-09T22:48:53.942Z,10.30
2018-09-09T22:54:18.628Z,10.30
2018-09-09T22:57:06.573Z,10.20
2018-09-09T22:59:39.439Z,10.10
2018-09-09T23:02:15.412Z,10.10
2018-09-09T23:04:47.070Z,10.00
2018-09-09T23:07:23.435Z,10.00
2018-09-09T23:12:53.461Z,10.10
2018-09-09T23:15:42.416Z,10.20
2018-09-09T23:18:12.508Z,10.20
2018-09-09T23:20:42.826Z,10.30
2018-09-09T23:23:12.945Z,10.40
2018-09-09T23:25:42.080Z,10.50
2018-09-09T23:28:12.613Z,10.40
2018-09-09T23:30:42.019Z,10.40
2018-09-09T23:33:18.690Z,10.30
2018-09-09T23:35:55.669Z,10.30
2018-09-09T23:38:24.927Z,10.40
2018-09-09T23:41:01.441Z,10.40
2018-09-09T23:44:23.620Z,10.40
2018-09-09T23:46:52.753Z,10.40
2018-09-09T23:49:22.973Z,10.40
2018-09-09T23:51:52.686Z,10.40
2018-09-09T23:54:23.627Z,10.40
2018-09-09T23:59:37.482Z,10.50
